ESL weather

Elista Airport
Elista, Republic of Kalmykia, Russia

Public forecast

Using degrees Celsius for public forecast. Weather courtesy of forecast.io.

METAR (pilot weather report)

Retrieved 2019/09/22 17:30 UTC (0 seconds ago):

URWI 221730Z 27013MPS 9999 SCT044 15/05 Q1014 R27/010065 TEMPO 26018G25MPS

TAF (pilot weather forecast)

Forecast is more than 12 hours old.

Retrieved 2019/09/12 09:12 UTC (10 days ago):

TAF TAF URWI 120800Z 1209/1221 08003G08MPS 9999 SCT030 TEMPO 1209/1221 11006G12MPS